Time;durP1;ratioP1;P1;durP2;ratioP2;P2;SDS_P1;SDS_P2;PMS_P1;PMS_P2;Temp;Humidity;BMP_temperature;BMP_pressure;BME280_temperature;BME280_humidity;BME280_pressure;Samples;Min_cycle;Max_cycle;Signal;HPM_P1;HPM_P2
2023/08/23 00:00:37;;;;;;;6.40;5.67;;;18.00;99.90;;;;;;491597;241;29345;-74
2023/08/23 00:02:38;;;;;;;10.80;6.80;;;18.10;99.90;;;;;;491606;241;28845;-74
2023/08/23 00:04:39;;;;;;;13.30;6.57;;;18.10;99.90;;;;;;491580;242;28814;-74
2023/08/23 00:06:41;;;;;;;7.10;5.80;;;18.10;99.90;;;;;;491603;241;28918;-74
2023/08/23 00:08:42;;;;;;;8.10;6.40;;;18.10;99.90;;;;;;491607;241;28919;-74
2023/08/23 00:10:43;;;;;;;7.93;5.87;;;18.10;99.90;;;;;;491611;242;28903;-74
2023/08/23 00:12:44;;;;;;;8.87;6.60;;;18.10;99.90;;;;;;491604;241;28924;-74
2023/08/23 00:14:46;;;;;;;7.10;6.40;;;18.10;99.90;;;;;;491616;241;28826;-75
2023/08/23 00:16:47;;;;;;;9.60;6.67;;;18.00;99.90;;;;;;491610;241;28845;-73
2023/08/23 00:18:48;;;;;;;7.17;6.47;;;18.10;99.90;;;;;;491614;241;28814;-75
2023/08/23 00:20:49;;;;;;;7.43;6.07;;;18.00;99.90;;;;;;491569;241;29372;-74
2023/08/23 00:22:51;;;;;;;6.73;6.13;;;18.00;99.90;;;;;;491592;242;29312;-74
2023/08/23 00:24:52;;;;;;;7.10;6.40;;;17.90;99.90;;;;;;491607;242;29350;-74
2023/08/23 00:26:53;;;;;;;7.73;6.70;;;17.90;99.90;;;;;;491605;241;28804;-75
2023/08/23 00:28:55;;;;;;;7.50;6.80;;;17.90;99.90;;;;;;491611;241;28901;-75
2023/08/23 00:30:56;;;;;;;7.30;6.60;;;17.90;99.90;;;;;;491603;242;28818;-74
2023/08/23 00:32:57;;;;;;;7.50;6.20;;;17.80;99.90;;;;;;491613;241;28841;-74
2023/08/23 00:34:58;;;;;;;7.60;6.80;;;17.80;99.90;;;;;;491618;241;28816;-73
2023/08/23 00:36:59;;;;;;;6.70;6.07;;;17.80;99.90;;;;;;491617;242;28792;-73
2023/08/23 00:39:01;;;;;;;6.83;6.17;;;17.70;99.90;;;;;;491600;241;28888;-76
2023/08/23 00:41:02;;;;;;;8.10;7.30;;;17.70;99.90;;;;;;491580;242;28888;-74
2023/08/23 00:43:06;;;;;;;8.10;7.17;;;17.70;99.90;;;;;;491606;241;28822;-74
2023/08/23 00:45:04;;;;;;;7.87;6.87;;;17.70;99.90;;;;;;491416;241;29349;-76
2023/08/23 00:47:06;;;;;;;7.00;6.37;;;17.70;99.90;;;;;;491582;242;29247;-75
2023/08/23 00:49:07;;;;;;;7.40;6.70;;;17.70;99.90;;;;;;491607;241;29349;-74
2023/08/23 00:51:08;;;;;;;7.33;6.63;;;17.70;99.90;;;;;;491606;241;28813;-79
2023/08/23 00:53:09;;;;;;;6.87;6.27;;;17.60;99.90;;;;;;491611;241;28821;-75
2023/08/23 00:55:11;;;;;;;6.87;6.20;;;17.60;99.90;;;;;;491605;241;28817;-73
2023/08/23 00:57:12;;;;;;;6.73;6.10;;;17.60;99.90;;;;;;491608;241;28821;-75
2023/08/23 00:59:14;;;;;;;6.97;6.30;;;17.60;99.90;;;;;;491601;241;28813;-75
2023/08/23 01:01:14;;;;;;;7.50;6.77;;;17.60;99.90;;;;;;491568;241;28813;-72
2023/08/23 01:03:16;;;;;;;10.03;6.63;;;17.60;99.90;;;;;;491608;242;28900;-72
2023/08/23 01:05:17;;;;;;;7.80;7.00;;;17.50;99.90;;;;;;491612;241;28909;-72
2023/08/23 01:07:18;;;;;;;7.77;6.83;;;17.50;99.90;;;;;;491589;241;29254;-72
2023/08/23 01:09:20;;;;;;;7.73;6.93;;;17.60;99.90;;;;;;491615;241;29310;-74
2023/08/23 01:11:21;;;;;;;8.00;6.70;;;17.50;99.90;;;;;;491604;241;29270;-73
2023/08/23 01:13:22;;;;;;;10.83;7.20;;;17.40;99.90;;;;;;491608;241;28933;-73
2023/08/23 01:15:24;;;;;;;8.60;6.47;;;17.30;99.90;;;;;;491576;242;28812;-73
2023/08/23 01:17:25;;;;;;;12.03;7.33;;;17.20;99.90;;;;;;491577;241;28814;-75
2023/08/23 01:19:26;;;;;;;8.40;6.33;;;17.10;99.90;;;;;;491494;241;28828;-74
2023/08/23 01:21:27;;;;;;;7.60;6.77;;;17.10;99.90;;;;;;491649;241;28819;-75
2023/08/23 01:23:28;;;;;;;11.10;7.97;;;17.20;99.90;;;;;;491596;241;28810;-75
2023/08/23 01:25:30;;;;;;;7.40;6.70;;;17.30;99.90;;;;;;491593;241;28935;-74
2023/08/23 01:27:32;;;;;;;12.43;7.40;;;17.30;99.90;;;;;;491581;241;28829;-75
2023/08/23 01:29:32;;;;;;;8.20;7.40;;;17.30;99.90;;;;;;491535;241;29376;-74
2023/08/23 01:31:33;;;;;;;7.93;7.13;;;17.40;99.90;;;;;;491593;241;29368;-75
2023/08/23 01:33:35;;;;;;;7.93;7.07;;;17.30;99.90;;;;;;491604;241;29310;-74
2023/08/23 01:35:36;;;;;;;8.20;7.27;;;17.30;99.90;;;;;;491592;241;28811;-72
2023/08/23 01:37:37;;;;;;;9.13;7.20;;;17.30;99.90;;;;;;491617;241;28788;-73
2023/08/23 01:39:38;;;;;;;8.50;7.20;;;17.30;99.90;;;;;;491595;242;28993;-75
2023/08/23 01:41:40;;;;;;;8.37;7.47;;;17.20;99.90;;;;;;491595;241;28885;-75
2023/08/23 01:43:41;;;;;;;8.33;7.20;;;17.30;99.90;;;;;;491589;241;28917;-74
2023/08/23 01:45:42;;;;;;;8.30;7.00;;;17.20;99.90;;;;;;491584;241;28821;-77
2023/08/23 01:47:43;;;;;;;7.60;6.83;;;17.30;99.90;;;;;;491589;241;28822;-75
2023/08/23 01:49:45;;;;;;;8.03;7.30;;;17.20;99.90;;;;;;491582;242;28829;-75
2023/08/23 01:51:46;;;;;;;9.10;7.20;;;17.20;99.90;;;;;;491372;242;29293;-75
2023/08/23 01:53:47;;;;;;;8.73;7.93;;;17.20;99.90;;;;;;491612;241;29350;-75
2023/08/23 01:55:48;;;;;;;10.73;7.30;;;17.20;99.90;;;;;;491605;241;29275;-75
2023/08/23 01:57:51;;;;;;;8.13;7.33;;;17.10;99.90;;;;;;491586;241;29382;-74
2023/08/23 01:59:52;;;;;;;7.50;6.90;;;17.10;99.90;;;;;;491141;242;28725;-75
2023/08/23 02:01:53;;;;;;;13.07;7.23;;;17.10;99.90;;;;;;491593;242;29268;-74
2023/08/23 02:03:54;;;;;;;8.33;7.10;;;17.10;99.90;;;;;;491598;241;29287;-76
2023/08/23 02:05:56;;;;;;;8.60;7.70;;;17.10;99.90;;;;;;491589;241;29257;-75
2023/08/23 02:07:57;;;;;;;8.90;8.00;;;17.10;99.90;;;;;;491567;241;28811;-74
2023/08/23 02:09:58;;;;;;;9.83;8.10;;;17.10;99.90;;;;;;491598;242;28818;-72
2023/08/23 02:11:59;;;;;;;8.13;7.33;;;17.10;99.90;;;;;;491578;241;28919;-74
2023/08/23 02:14:01;;;;;;;9.43;7.60;;;17.00;99.90;;;;;;491610;241;28822;-76
2023/08/23 02:16:02;;;;;;;7.47;6.77;;;17.00;99.90;;;;;;491593;241;28822;-75
2023/08/23 02:18:03;;;;;;;7.13;6.43;;;17.00;99.90;;;;;;491604;241;28932;-76
2023/08/23 02:20:04;;;;;;;8.40;7.50;;;17.00;99.90;;;;;;491584;241;28809;-75
2023/08/23 02:22:06;;;;;;;9.53;7.60;;;17.00;99.90;;;;;;491591;241;28832;-75
2023/08/23 02:24:07;;;;;;;7.90;7.20;;;16.90;99.90;;;;;;491591;241;28908;-75
2023/08/23 02:26:08;;;;;;;7.73;6.93;;;16.90;99.90;;;;;;491596;241;29349;-74
2023/08/23 02:28:09;;;;;;;8.40;7.57;;;16.90;99.90;;;;;;491571;241;29338;-76
2023/08/23 02:30:11;;;;;;;8.80;7.70;;;16.90;99.90;;;;;;491595;241;29522;-73
2023/08/23 02:32:12;;;;;;;8.80;7.17;;;16.90;99.90;;;;;;491600;241;28839;-74
2023/08/23 02:34:13;;;;;;;8.47;7.73;;;16.90;99.90;;;;;;491613;241;28810;-74
2023/08/23 02:36:14;;;;;;;15.47;8.07;;;16.90;99.90;;;;;;491598;241;28721;-74
2023/08/23 02:38:16;;;;;;;8.40;7.50;;;16.80;99.90;;;;;;491591;241;28891;-75
2023/08/23 02:40:17;;;;;;;8.23;7.23;;;16.80;99.90;;;;;;491595;241;28833;-74
2023/08/23 02:42:18;;;;;;;8.40;7.23;;;16.70;99.90;;;;;;491591;241;28834;-76
2023/08/23 02:44:19;;;;;;;8.50;7.60;;;16.80;99.90;;;;;;491581;241;28860;-76
2023/08/23 02:46:21;;;;;;;9.40;8.50;;;16.70;99.90;;;;;;491606;241;28810;-75
2023/08/23 02:48:23;;;;;;;8.37;7.67;;;16.60;99.90;;;;;;491606;241;28823;-76
2023/08/23 02:50:23;;;;;;;9.50;7.13;;;16.50;99.90;;;;;;491579;241;29594;-75
2023/08/23 02:52:24;;;;;;;8.13;6.97;;;16.60;99.90;;;;;;491623;241;29274;-75
2023/08/23 02:54:26;;;;;;;8.30;7.50;;;16.60;99.90;;;;;;491619;241;29230;-75
2023/08/23 02:56:27;;;;;;;8.03;7.33;;;16.60;99.90;;;;;;491630;241;28897;-73
2023/08/23 02:58:28;;;;;;;8.80;7.57;;;16.60;99.90;;;;;;491626;241;28799;-73
2023/08/23 03:00:29;;;;;;;8.10;7.30;;;16.60;99.90;;;;;;491623;241;28897;-73
2023/08/23 03:02:32;;;;;;;8.90;8.00;;;16.60;99.90;;;;;;491605;241;28921;-75
2023/08/23 03:04:32;;;;;;;8.90;8.00;;;16.60;99.90;;;;;;491539;241;28819;-74
2023/08/23 03:06:33;;;;;;;9.83;7.87;;;16.60;99.90;;;;;;491615;241;28823;-74
2023/08/23 03:08:34;;;;;;;10.03;8.43;;;16.60;99.90;;;;;;491610;241;28823;-74
2023/08/23 03:10:36;;;;;;;8.80;7.43;;;16.60;99.90;;;;;;491620;241;28819;-75
2023/08/23 03:12:37;;;;;;;10.93;8.00;;;16.60;99.90;;;;;;491627;241;29282;-73
2023/08/23 03:14:38;;;;;;;9.10;8.30;;;16.60;99.90;;;;;;491499;242;29265;-73
2023/08/23 03:16:39;;;;;;;7.77;7.07;;;16.60;99.90;;;;;;491628;241;29206;-73
2023/08/23 03:18:41;;;;;;;8.93;8.03;;;16.50;99.90;;;;;;491609;241;29350;-74
2023/08/23 03:20:42;;;;;;;8.70;7.90;;;16.50;99.90;;;;;;491623;241;28823;-73
2023/08/23 03:22:43;;;;;;;10.03;7.33;;;16.50;99.90;;;;;;491588;242;28905;-73
2023/08/23 03:24:44;;;;;;;10.53;7.70;;;16.50;99.90;;;;;;491624;241;28790;-73
2023/08/23 03:26:46;;;;;;;8.17;7.37;;;16.50;99.90;;;;;;491620;241;28904;-73
2023/08/23 03:28:47;;;;;;;10.30;8.97;;;16.50;99.90;;;;;;491587;241;28827;-76
2023/08/23 03:30:48;;;;;;;9.50;7.43;;;16.50;99.90;;;;;;491589;241;28853;-74
2023/08/23 03:32:50;;;;;;;8.63;7.73;;;16.50;99.90;;;;;;491598;241;28827;-74
2023/08/23 03:34:51;;;;;;;8.87;7.80;;;16.40;99.90;;;;;;491595;241;28878;-74
2023/08/23 03:36:52;;;;;;;10.13;8.43;;;16.30;99.90;;;;;;491610;241;29277;-75
2023/08/23 03:38:53;;;;;;;9.30;8.40;;;16.30;99.90;;;;;;491605;242;29245;-74
2023/08/23 03:40:55;;;;;;;8.87;8.03;;;16.30;99.90;;;;;;491615;241;29256;-75
2023/08/23 03:42:56;;;;;;;8.37;7.50;;;16.30;99.90;;;;;;491606;241;29274;-76
2023/08/23 03:44:57;;;;;;;8.60;7.80;;;16.30;99.90;;;;;;491605;242;29287;-74
2023/08/23 03:46:58;;;;;;;13.77;8.30;;;16.30;99.90;;;;;;491620;241;28811;-74
2023/08/23 03:49:00;;;;;;;9.53;7.70;;;16.30;99.90;;;;;;491600;241;28789;-75
2023/08/23 03:51:01;;;;;;;8.77;7.50;;;16.20;99.90;;;;;;491601;242;28810;-78
2023/08/23 03:53:02;;;;;;;8.40;7.60;;;16.20;99.90;;;;;;491602;241;28822;-74
2023/08/23 03:55:03;;;;;;;9.00;8.20;;;16.20;99.90;;;;;;491597;242;28814;-76
2023/08/23 03:57:05;;;;;;;9.17;8.20;;;16.20;99.90;;;;;;491600;241;28925;-74
2023/08/23 03:59:06;;;;;;;8.37;7.57;;;16.10;99.90;;;;;;491601;241;28818;-75
2023/08/23 04:01:07;;;;;;;8.63;7.77;;;16.10;99.90;;;;;;491613;241;28902;-76
2023/08/23 04:03:08;;;;;;;8.43;7.63;;;16.20;99.90;;;;;;491600;241;29305;-75
2023/08/23 04:05:13;;;;;;;8.33;7.63;;;16.20;99.90;;;;;;491597;241;29281;-75
2023/08/23 04:07:11;;;;;;;8.77;6.87;;;16.20;99.90;;;;;;491457;242;29364;-75
2023/08/23 04:09:12;;;;;;;9.40;8.37;;;16.20;99.90;;;;;;491614;241;29340;-72
2023/08/23 04:11:13;;;;;;;9.43;8.40;;;16.20;99.90;;;;;;491621;241;28710;-73
2023/08/23 04:13:15;;;;;;;8.80;8.00;;;16.10;99.90;;;;;;491609;241;28835;-75
2023/08/23 04:15:17;;;;;;;11.03;7.50;;;16.10;99.90;;;;;;491609;241;28830;-74
2023/08/23 04:17:17;;;;;;;9.47;8.57;;;16.00;99.90;;;;;;491544;241;28828;-75
2023/08/23 04:19:18;;;;;;;7.77;7.17;;;16.00;99.90;;;;;;491608;241;28831;-75
2023/08/23 04:21:20;;;;;;;8.27;7.57;;;16.10;99.90;;;;;;491591;241;28898;-75
2023/08/23 04:23:21;;;;;;;9.13;8.33;;;16.00;99.90;;;;;;491597;241;28842;-75
2023/08/23 04:25:22;;;;;;;9.03;8.17;;;16.10;99.90;;;;;;491605;241;28807;-75
2023/08/23 04:27:23;;;;;;;11.13;8.47;;;16.10;99.90;;;;;;491577;241;29396;-75
2023/08/23 04:29:25;;;;;;;10.13;8.03;;;16.10;99.90;;;;;;491588;242;29295;-73
2023/08/23 04:31:26;;;;;;;9.10;7.47;;;16.20;99.90;;;;;;491603;241;29299;-74
2023/08/23 04:33:27;;;;;;;8.70;7.77;;;16.20;99.90;;;;;;491614;241;28889;-75
2023/08/23 04:35:28;;;;;;;8.90;7.73;;;16.20;99.90;;;;;;491590;242;28818;-74
2023/08/23 04:37:30;;;;;;;11.23;8.23;;;16.20;99.90;;;;;;491598;241;28906;-75
2023/08/23 04:39:31;;;;;;;9.53;8.07;;;16.10;99.90;;;;;;491602;241;28820;-73
2023/08/23 04:41:32;;;;;;;8.73;7.93;;;16.10;99.90;;;;;;491604;241;28916;-74
2023/08/23 04:43:34;;;;;;;8.20;7.50;;;16.10;99.90;;;;;;491601;241;28898;-75
2023/08/23 04:45:35;;;;;;;8.40;7.60;;;16.10;99.90;;;;;;491590;241;28827;-76
2023/08/23 04:47:36;;;;;;;9.50;7.47;;;16.00;99.90;;;;;;491599;241;28934;-75
2023/08/23 04:49:37;;;;;;;8.77;7.97;;;16.00;99.90;;;;;;491594;241;28829;-74
2023/08/23 04:51:38;;;;;;;8.43;7.73;;;16.00;99.90;;;;;;491592;241;29276;-75
2023/08/23 04:53:40;;;;;;;8.07;7.30;;;16.00;99.90;;;;;;491576;241;29290;-75
2023/08/23 04:55:41;;;;;;;8.43;7.63;;;16.00;99.90;;;;;;491608;241;29295;-73
2023/08/23 04:57:42;;;;;;;9.10;8.00;;;16.00;99.90;;;;;;491570;241;28905;-75
2023/08/23 04:59:43;;;;;;;11.90;8.17;;;16.00;99.90;;;;;;491598;242;28823;-75
2023/08/23 05:01:45;;;;;;;11.00;8.60;;;15.90;99.90;;;;;;491566;241;28816;-74
2023/08/23 05:03:46;;;;;;;9.97;8.67;;;15.90;99.90;;;;;;491597;241;28832;-75
2023/08/23 05:05:47;;;;;;;8.20;7.50;;;15.90;99.90;;;;;;491601;241;28819;-74
2023/08/23 05:07:49;;;;;;;8.70;8.00;;;15.90;99.90;;;;;;491592;242;28917;-75
2023/08/23 05:09:50;;;;;;;9.17;8.23;;;15.90;99.90;;;;;;490656;241;28853;-75
2023/08/23 05:11:51;;;;;;;10.77;9.13;;;15.90;99.90;;;;;;490666;241;28735;-75
2023/08/23 05:13:52;;;;;;;10.20;9.30;;;15.90;99.90;;;;;;490658;241;29275;-77
2023/08/23 05:15:53;;;;;;;8.80;8.10;;;16.00;99.90;;;;;;490662;241;29294;-75
2023/08/23 05:17:55;;;;;;;8.23;7.50;;;16.00;99.90;;;;;;491562;241;29393;-75
2023/08/23 05:19:57;;;;;;;9.17;8.23;;;16.10;99.90;;;;;;491606;241;28822;-74
2023/08/23 05:21:58;;;;;;;8.70;7.90;;;16.10;99.90;;;;;;491608;241;28826;-73
2023/08/23 05:23:59;;;;;;;9.33;7.60;;;16.10;99.90;;;;;;491603;241;28809;-72
2023/08/23 05:26:02;;;;;;;10.10;7.50;;;16.30;99.90;;;;;;491616;241;28910;-73
2023/08/23 05:28:02;;;;;;;8.60;7.90;;;16.30;99.90;;;;;;491540;242;28814;-74
2023/08/23 05:30:04;;;;;;;8.77;7.97;;;16.30;99.90;;;;;;491597;241;28819;-73
2023/08/23 05:32:05;;;;;;;8.17;7.37;;;16.30;99.90;;;;;;491605;241;28816;-75
2023/08/23 05:34:06;;;;;;;9.53;8.57;;;16.30;99.90;;;;;;491582;241;28838;-75
2023/08/23 05:36:07;;;;;;;8.73;7.97;;;16.30;99.90;;;;;;491603;241;29244;-74
2023/08/23 05:38:09;;;;;;;10.97;8.00;;;16.30;99.90;;;;;;491579;241;29731;-74
2023/08/23 05:40:09;;;;;;;9.37;8.27;;;16.40;99.90;;;;;;491566;242;29270;-73
2023/08/23 05:42:11;;;;;;;7.93;7.33;;;16.50;99.90;;;;;;491582;241;28818;-73
2023/08/23 05:44:12;;;;;;;9.23;8.30;;;16.50;99.90;;;;;;491611;241;28725;-72
2023/08/23 05:46:13;;;;;;;8.80;8.00;;;16.60;99.90;;;;;;491599;241;28826;-75
2023/08/23 05:48:14;;;;;;;9.90;7.97;;;16.60;99.90;;;;;;491609;241;28909;-74
2023/08/23 05:50:16;;;;;;;13.83;7.90;;;16.70;99.90;;;;;;491597;242;28921;-72
2023/08/23 05:52:17;;;;;;;8.90;8.00;;;16.70;99.90;;;;;;491606;241;28914;-74
2023/08/23 05:54:18;;;;;;;7.63;6.97;;;16.70;99.90;;;;;;491619;241;28909;-73
2023/08/23 05:56:19;;;;;;;8.77;7.97;;;16.70;99.90;;;;;;491604;241;28822;-75
2023/08/23 05:58:21;;;;;;;9.10;7.50;;;16.70;99.90;;;;;;491593;241;29392;-74
2023/08/23 06:00:22;;;;;;;8.80;8.00;;;16.80;99.90;;;;;;491589;242;29273;-75
2023/08/23 06:02:23;;;;;;;10.50;8.10;;;16.80;99.90;;;;;;491600;241;29277;-75
2023/08/23 06:04:24;;;;;;;7.63;6.93;;;16.90;99.90;;;;;;491594;242;28822;-74
2023/08/23 06:06:26;;;;;;;9.13;7.60;;;16.90;99.90;;;;;;491592;241;28819;-75
2023/08/23 06:08:27;;;;;;;8.47;7.53;;;16.90;99.90;;;;;;491598;241;28841;-75
2023/08/23 06:10:28;;;;;;;8.53;7.87;;;17.00;99.90;;;;;;491598;241;28846;-74
2023/08/23 06:12:29;;;;;;;8.97;8.07;;;17.10;99.90;;;;;;491591;241;28807;-74
2023/08/23 06:14:31;;;;;;;9.57;8.20;;;17.10;99.90;;;;;;491601;241;28810;-75
2023/08/23 06:16:32;;;;;;;10.70;8.67;;;17.10;99.90;;;;;;491607;241;28809;-75
2023/08/23 06:18:33;;;;;;;9.23;8.33;;;17.20;99.90;;;;;;491592;242;28827;-72
2023/08/23 06:20:35;;;;;;;10.77;8.43;;;17.20;99.90;;;;;;491624;241;28801;-72
2023/08/23 06:22:36;;;;;;;12.53;8.63;;;17.20;99.90;;;;;;491612;241;29360;-74
2023/08/23 06:24:37;;;;;;;9.53;8.53;;;17.30;99.90;;;;;;491611;241;29225;-74
2023/08/23 06:26:38;;;;;;;8.53;7.60;;;17.40;99.90;;;;;;491606;241;28929;-75
2023/08/23 06:28:40;;;;;;;8.60;7.80;;;17.40;99.90;;;;;;491620;241;28891;-74
2023/08/23 06:30:41;;;;;;;8.90;7.87;;;17.50;99.90;;;;;;491505;241;28909;-75
2023/08/23 06:32:42;;;;;;;9.00;8.10;;;17.50;99.90;;;;;;491625;241;28837;-74
2023/08/23 06:34:43;;;;;;;12.43;8.23;;;17.60;99.90;;;;;;491623;241;28798;-75
2023/08/23 06:36:45;;;;;;;8.70;7.90;;;17.60;99.90;;;;;;491627;241;28908;-76
2023/08/23 06:38:47;;;;;;;9.97;9.00;;;17.70;99.90;;;;;;491621;241;28818;-75
2023/08/23 06:40:47;;;;;;;8.73;8.03;;;17.70;99.90;;;;;;491591;241;28909;-74
2023/08/23 06:42:48;;;;;;;9.03;8.13;;;17.80;99.90;;;;;;491614;241;28816;-75
2023/08/23 06:44:50;;;;;;;9.27;8.37;;;17.90;99.90;;;;;;491626;241;29270;-72
2023/08/23 06:46:51;;;;;;;9.40;7.87;;;17.90;99.90;;;;;;491617;241;29382;-73
2023/08/23 06:48:52;;;;;;;9.50;8.47;;;18.00;99.90;;;;;;491608;242;29266;-72
2023/08/23 06:50:54;;;;;;;10.60;8.93;;;18.00;99.90;;;;;;491629;241;28846;-74
2023/08/23 06:52:55;;;;;;;11.83;9.40;;;18.10;99.90;;;;;;491615;241;28824;-75
2023/08/23 06:54:56;;;;;;;8.83;8.13;;;18.20;99.90;;;;;;491613;241;28846;-76
2023/08/23 06:56:57;;;;;;;8.50;7.70;;;18.20;99.90;;;;;;491611;241;28831;-75
2023/08/23 06:58:58;;;;;;;9.20;8.30;;;18.30;99.90;;;;;;491620;241;28807;-74
2023/08/23 07:01:00;;;;;;;10.43;9.07;;;18.40;99.90;;;;;;491617;241;28885;-75
2023/08/23 07:03:01;;;;;;;9.10;8.30;;;18.40;99.90;;;;;;491621;241;28833;-74
2023/08/23 07:05:02;;;;;;;11.53;7.73;;;18.50;99.90;;;;;;491619;241;28814;-75
2023/08/23 07:07:03;;;;;;;9.00;8.20;;;18.60;99.90;;;;;;491599;242;29277;-75
2023/08/23 07:09:06;;;;;;;8.40;7.50;;;18.60;99.90;;;;;;491600;241;29374;-75
2023/08/23 07:11:06;;;;;;;8.77;7.97;;;18.70;99.90;;;;;;491574;241;29410;-75
2023/08/23 07:13:07;;;;;;;8.57;7.80;;;18.80;99.90;;;;;;491623;241;28894;-74
2023/08/23 07:15:08;;;;;;;8.33;7.53;;;18.80;99.90;;;;;;491515;241;28909;-74
2023/08/23 07:17:10;;;;;;;10.37;8.53;;;18.90;99.90;;;;;;491612;242;28826;-75
2023/08/23 07:19:12;;;;;;;8.70;7.90;;;18.90;99.90;;;;;;491618;241;28925;-75
2023/08/23 07:21:12;;;;;;;8.60;7.80;;;19.00;99.90;;;;;;491599;241;28823;-75
2023/08/23 07:23:13;;;;;;;9.80;7.13;;;19.10;99.90;;;;;;491613;242;28826;-74
2023/08/23 07:25:15;;;;;;;8.03;7.23;;;19.20;99.90;;;;;;491628;241;28822;-75
2023/08/23 07:27:16;;;;;;;8.80;8.00;;;19.20;99.90;;;;;;491580;241;28905;-73
2023/08/23 07:29:17;;;;;;;9.80;8.90;;;19.20;99.90;;;;;;491608;241;29299;-74
2023/08/23 07:31:18;;;;;;;8.70;7.90;;;19.30;99.90;;;;;;491604;241;29251;-73
2023/08/23 07:33:20;;;;;;;11.63;8.47;;;19.50;99.90;;;;;;491617;241;29298;-75
2023/08/23 07:35:21;;;;;;;9.83;8.83;;;19.60;99.90;;;;;;491602;242;28915;-74
2023/08/23 07:37:22;;;;;;;11.43;8.40;;;19.70;99.90;;;;;;491609;241;29385;-75
2023/08/23 07:39:24;;;;;;;7.47;6.60;;;19.80;99.90;;;;;;491612;241;28840;-75
2023/08/23 07:41:25;;;;;;;9.20;7.60;;;20.10;99.90;;;;;;491548;242;28935;-75
2023/08/23 07:43:26;;;;;;;9.27;6.47;;;20.30;99.90;;;;;;491616;241;28847;-74
2023/08/23 07:45:27;;;;;;;10.00;6.40;;;20.50;99.90;;;;;;491605;241;28815;-77
2023/08/23 07:47:28;;;;;;;9.07;6.87;;;20.80;99.90;;;;;;491615;242;28911;-75
2023/08/23 07:49:30;;;;;;;8.93;6.07;;;21.00;99.90;;;;;;491607;241;28822;-74
2023/08/23 07:51:31;;;;;;;10.83;6.10;;;21.00;99.90;;;;;;491579;241;28872;-74
2023/08/23 07:53:32;;;;;;;8.50;6.50;;;21.00;99.90;;;;;;491619;241;29243;-75
2023/08/23 07:55:33;;;;;;;11.03;5.57;;;21.00;99.90;;;;;;491603;241;29266;-75
2023/08/23 07:57:35;;;;;;;11.87;6.70;;;21.10;99.90;;;;;;491613;241;28919;-74
2023/08/23 07:59:36;;;;;;;9.27;6.70;;;21.10;99.90;;;;;;491617;241;28723;-74
2023/08/23 08:01:37;;;;;;;9.50;5.90;;;21.20;99.90;;;;;;491604;241;28739;-74
2023/08/23 08:03:39;;;;;;;9.53;6.00;;;21.30;99.90;;;;;;491598;241;28810;-75
2023/08/23 08:05:40;;;;;;;7.83;5.90;;;21.30;99.90;;;;;;491599;241;28846;-75
2023/08/23 08:07:41;;;;;;;6.60;5.10;;;21.40;99.90;;;;;;491601;241;28824;-72
2023/08/23 08:09:42;;;;;;;7.60;5.27;;;21.60;99.90;;;;;;491600;241;28903;-74
2023/08/23 08:11:43;;;;;;;11.63;6.60;;;21.70;99.90;;;;;;491613;242;28816;-74
2023/08/23 08:13:45;;;;;;;8.30;6.10;;;21.70;99.90;;;;;;491603;241;29359;-74
2023/08/23 08:15:46;;;;;;;5.80;5.20;;;21.80;99.90;;;;;;491606;241;29254;-75
2023/08/23 08:17:50;;;;;;;8.57;5.30;;;21.80;99.90;;;;;;491597;242;29254;-76
2023/08/23 08:19:48;;;;;;;7.13;4.77;;;21.80;99.90;;;;;;491413;241;28821;-75
2023/08/23 08:21:50;;;;;;;7.57;5.13;;;21.80;99.90;;;;;;491600;241;28812;-75
2023/08/23 08:23:51;;;;;;;7.47;5.27;;;21.80;99.90;;;;;;491607;241;28813;-75
2023/08/23 08:25:52;;;;;;;5.37;4.67;;;21.80;99.90;;;;;;491603;241;28928;-75
2023/08/23 08:27:53;;;;;;;10.13;5.10;;;21.90;99.90;;;;;;491604;241;28825;-75
2023/08/23 08:29:55;;;;;;;7.27;4.77;;;22.00;99.90;;;;;;491596;241;28793;-75
2023/08/23 08:31:56;;;;;;;5.77;4.73;;;22.10;99.90;;;;;;491607;241;28929;-76
2023/08/23 08:33:59;;;;;;;9.20;5.30;;;22.20;99.90;;;;;;491597;242;28886;-75
2023/08/23 08:35:58;;;;;;;6.27;5.20;;;22.10;99.90;;;;;;491486;241;28797;-74
2023/08/23 08:38:00;;;;;;;5.80;4.80;;;22.10;99.90;;;;;;491604;241;29344;-75
2023/08/23 08:40:01;;;;;;;5.93;5.10;;;22.00;99.90;;;;;;491602;241;29252;-74
2023/08/23 08:42:02;;;;;;;4.40;4.03;;;21.90;99.90;;;;;;491599;241;29362;-74
2023/08/23 08:44:03;;;;;;;7.57;4.53;;;21.90;99.90;;;;;;491585;241;28832;-74
2023/08/23 08:46:05;;;;;;;7.63;4.70;;;21.90;99.90;;;;;;491603;242;28841;-74
2023/08/23 08:48:06;;;;;;;4.80;4.30;;;21.90;99.90;;;;;;491605;241;28809;-74
2023/08/23 08:50:07;;;;;;;5.53;4.50;;;21.80;99.90;;;;;;491584;241;28847;-75
2023/08/23 08:52:08;;;;;;;4.90;4.40;;;21.80;99.90;;;;;;491598;241;28882;-74
2023/08/23 08:54:10;;;;;;;10.37;5.77;;;21.90;99.90;;;;;;491598;241;28717;-74
2023/08/23 08:56:11;;;;;;;5.10;4.60;;;22.00;99.90;;;;;;491599;241;28822;-75
2023/08/23 08:58:19;;;;;;;5.30;4.27;;;22.00;99.90;;;;;;491599;241;28811;-75
2023/08/23 09:00:13;;;;;;;6.60;5.07;;;22.10;99.90;;;;;;492687;241;29365;-74
2023/08/23 09:02:15;;;;;;;8.30;5.33;;;22.10;99.90;;;;;;493143;241;29267;-74
2023/08/23 09:04:16;;;;;;;5.00;4.50;;;22.20;99.90;;;;;;491605;241;29252;-74
2023/08/23 09:06:17;;;;;;;5.03;4.60;;;22.20;99.90;;;;;;491603;242;29365;-74
2023/08/23 09:08:18;;;;;;;4.50;4.10;;;22.20;99.90;;;;;;491598;241;28815;-74
2023/08/23 09:10:20;;;;;;;5.20;4.70;;;22.20;99.90;;;;;;491482;242;28826;-74
2023/08/23 09:12:21;;;;;;;5.87;5.33;;;22.20;99.90;;;;;;491604;242;28815;-76
2023/08/23 09:14:25;;;;;;;6.37;4.90;;;22.30;99.90;;;;;;491602;241;28900;-75
2023/08/23 09:16:23;;;;;;;8.67;4.80;;;22.50;99.90;;;;;;491518;241;28904;-75
2023/08/23 09:18:25;;;;;;;5.87;4.67;;;22.70;99.90;;;;;;491494;242;28816;-75
2023/08/23 09:20:26;;;;;;;7.23;5.23;;;22.70;99.90;;;;;;491599;241;28806;-74
2023/08/23 09:22:27;;;;;;;7.83;4.73;;;22.70;99.90;;;;;;491591;241;28884;-74
2023/08/23 09:24:28;;;;;;;4.60;4.20;;;22.60;99.90;;;;;;491599;241;28813;-74
2023/08/23 09:26:30;;;;;;;5.50;5.00;;;22.60;99.90;;;;;;491599;241;29379;-76
2023/08/23 09:28:32;;;;;;;6.27;5.13;;;22.80;99.90;;;;;;491607;241;29259;-74
2023/08/23 09:30:32;;;;;;;7.50;4.60;;;22.80;99.90;;;;;;491592;241;29410;-75
2023/08/23 09:32:34;;;;;;;6.93;4.80;;;22.60;99.90;;;;;;491593;241;28813;-74
2023/08/23 09:34:35;;;;;;;5.77;5.17;;;22.70;99.90;;;;;;491589;242;28896;-75
2023/08/23 09:36:40;;;;;;;6.73;4.93;;;22.70;99.90;;;;;;491594;241;28839;-74
2023/08/23 09:38:37;;;;;;;4.87;4.47;;;22.70;99.90;;;;;;491386;241;28824;-74
2023/08/23 09:40:39;;;;;;;6.90;4.80;;;22.70;99.90;;;;;;491586;241;28727;-74
2023/08/23 09:42:40;;;;;;;8.50;5.40;;;22.80;99.90;;;;;;491593;241;28805;-75
2023/08/23 09:44:43;;;;;;;5.53;4.70;;;22.80;99.90;;;;;;491602;241;28817;-75
2023/08/23 09:46:45;;;;;;;4.90;4.20;;;22.90;99.90;;;;;;491533;241;28819;-74
2023/08/23 09:48:44;;;;;;;4.53;4.10;;;22.90;99.90;;;;;;491517;241;28826;-74
2023/08/23 09:50:46;;;;;;;4.80;4.27;;;22.90;99.90;;;;;;491591;241;28823;-74
2023/08/23 09:52:47;;;;;;;5.90;5.07;;;22.80;99.90;;;;;;491592;242;29341;-73
2023/08/23 09:54:48;;;;;;;6.07;4.17;;;23.00;99.90;;;;;;491585;241;29322;-74
2023/08/23 09:56:50;;;;;;;5.60;4.47;;;23.00;99.90;;;;;;491600;241;29278;-74
2023/08/23 09:58:51;;;;;;;6.93;4.50;;;23.10;99.90;;;;;;491594;241;28823;-75
2023/08/23 10:00:52;;;;;;;5.80;4.47;;;23.10;99.90;;;;;;491579;242;28911;-74
2023/08/23 10:02:53;;;;;;;9.30;4.50;;;23.20;99.90;;;;;;491593;241;28893;-74
2023/08/23 10:04:54;;;;;;;5.53;4.53;;;23.10;99.90;;;;;;491597;241;28939;-74
2023/08/23 10:06:56;;;;;;;4.97;4.20;;;23.10;99.90;;;;;;491599;241;28811;-76
2023/08/23 10:08:57;;;;;;;6.40;4.50;;;23.10;99.90;;;;;;491593;241;28814;-74
2023/08/23 10:10:58;;;;;;;4.57;4.17;;;23.20;99.90;;;;;;491575;241;28908;-75
2023/08/23 10:12:59;;;;;;;5.90;4.60;;;23.30;99.90;;;;;;491557;241;28814;-75
2023/08/23 10:15:01;;;;;;;4.70;4.10;;;23.30;99.90;;;;;;491595;241;28832;-74
2023/08/23 10:17:02;;;;;;;7.60;4.10;;;23.40;99.90;;;;;;491590;241;29386;-75
2023/08/23 10:19:03;;;;;;;7.17;4.87;;;23.50;99.90;;;;;;491593;241;29261;-75
2023/08/23 10:21:04;;;;;;;5.77;4.60;;;23.70;99.90;;;;;;491591;241;29307;-75
2023/08/23 10:23:06;;;;;;;5.30;4.17;;;23.70;99.90;;;;;;491585;241;29259;-74
2023/08/23 10:25:07;;;;;;;6.10;4.83;;;23.60;99.90;;;;;;491595;241;28815;-75
2023/08/23 10:27:08;;;;;;;5.53;5.03;;;23.70;99.90;;;;;;491590;241;28814;-74
2023/08/23 10:29:09;;;;;;;4.80;4.40;;;23.70;99.90;;;;;;491589;241;28819;-75